Time;durP1;ratioP1;P1;durP2;ratioP2;P2;SDS_P1;SDS_P2;PMS_P1;PMS_P2;Temp;Humidity;BMP_temperature;BMP_pressure;BME280_temperature;BME280_humidity;BME280_pressure;Samples;Min_cycle;Max_cycle;Signal;HPM_P1;HPM_P2
2022/01/05 00:01:59;;;;;;;5.53;1.13;;;;;;;8.17;59.49;100009.81;4946213;28;118411;-73
2022/01/05 00:04:26;;;;;;;6.10;1.48;;;;;;;8.15;59.34;100003.78;4929904;28;124592;-73
2022/01/05 00:06:53;;;;;;;5.75;1.30;;;;;;;8.15;59.46;100001.13;4947822;28;124036;-73
2022/01/05 00:09:20;;;;;;;5.95;1.63;;;;;;;8.14;58.90;100004.72;4947396;28;119569;-73
2022/01/05 00:11:47;;;;;;;4.05;1.30;;;;;;;8.12;59.14;100002.16;4947887;28;119085;-72
2022/01/05 00:14:15;;;;;;;5.07;1.60;;;;;;;8.11;59.46;99999.56;4946511;28;124428;-71
2022/01/05 00:16:42;;;;;;;6.05;1.40;;;;;;;8.09;59.08;100007.56;4929825;28;124615;-71
2022/01/05 00:19:09;;;;;;;5.28;1.25;;;;;;;8.06;59.12;100007.72;4946374;28;118972;-72
2022/01/05 00:21:36;;;;;;;3.67;1.25;;;;;;;8.05;59.32;100005.16;4945169;28;119459;-72
2022/01/05 00:24:04;;;;;;;3.58;2.00;;;;;;;8.02;59.31;100005.28;4948567;28;124944;-72
2022/01/05 00:26:31;;;;;;;7.60;1.50;;;;;;;7.98;59.21;100010.69;4947725;28;124284;-71
2022/01/05 00:28:58;;;;;;;9.20;1.90;;;;;;;7.96;59.40;100011.72;4931168;28;119567;-71
2022/01/05 00:31:25;;;;;;;4.25;1.30;;;;;;;7.94;58.99;100008.28;4943118;28;117034;-72
2022/01/05 00:33:54;;;;;;;6.45;1.50;;;;;;;7.90;58.92;100004.09;4931229;28;124253;-72
2022/01/05 00:36:21;;;;;;;6.68;1.40;;;;;;;7.88;59.05;100004.16;4948564;28;123873;-72
2022/01/05 00:38:49;;;;;;;7.38;1.35;;;;;;;7.86;59.10;100005.19;4948621;28;119947;-71
2022/01/05 00:41:16;;;;;;;6.10;1.30;;;;;;;7.83;59.03;100019.34;4946907;28;120453;-71
2022/01/05 00:43:43;;;;;;;4.43;1.27;;;;;;;7.80;58.96;100022.13;4941387;28;125004;-71
2022/01/05 00:46:11;;;;;;;6.15;1.45;;;;;;;7.77;58.76;100022.28;4948562;28;123919;-72
2022/01/05 00:48:38;;;;;;;3.05;1.40;;;;;;;7.74;58.86;100025.03;4946771;28;118572;-71
2022/01/05 00:51:07;;;;;;;5.05;1.60;;;;;;;7.71;58.74;100030.47;4916162;28;117600;-71
2022/01/05 00:53:35;;;;;;;5.15;1.35;;;;;;;7.68;59.05;100033.25;4951314;28;123904;-70
2022/01/05 00:56:03;;;;;;;4.72;1.20;;;;;;;7.65;59.04;100033.38;4970112;28;123569;-72
2022/01/05 00:58:30;;;;;;;5.13;1.27;;;;;;;7.62;58.58;100028.25;4952184;28;120217;-72
2022/01/05 01:00:57;;;;;;;6.47;1.52;;;;;;;7.58;58.49;100033.66;4949378;28;119034;-71
2022/01/05 01:03:27;;;;;;;6.85;1.65;;;;;;;7.56;58.82;100035.50;4970724;28;124068;-72
2022/01/05 01:05:56;;;;;;;6.30;1.40;;;;;;;7.54;58.79;100037.38;4971561;28;123708;-70
2022/01/05 01:08:23;;;;;;;8.32;1.50;;;;;;;7.52;58.95;100033.09;4971461;28;119661;-71
2022/01/05 01:10:51;;;;;;;8.30;1.23;;;;;;;7.49;58.67;100039.34;4937402;28;117932;-72
2022/01/05 01:13:19;;;;;;;5.97;1.70;;;;;;;7.46;58.64;100044.78;4970022;28;125863;-71
2022/01/05 01:15:47;;;;;;;8.77;1.80;;;;;;;7.43;58.46;100044.91;4967910;28;123651;-72
2022/01/05 01:18:16;;;;;;;9.65;1.38;;;;;;;7.42;58.90;100051.06;4947892;28;118629;-72
2022/01/05 01:20:43;;;;;;;7.88;1.80;;;;;;;7.39;58.59;100049.44;4947479;28;118929;-72
2022/01/05 01:23:11;;;;;;;4.18;1.23;;;;;;;7.38;58.68;100052.16;4947669;28;123676;-72
2022/01/05 01:25:39;;;;;;;7.55;1.60;;;;;;;7.37;58.83;100047.81;4947419;28;124609;-72
2022/01/05 01:28:06;;;;;;;7.20;1.40;;;;;;;7.34;58.63;100056.69;4947484;28;119807;-72
2022/01/05 01:30:34;;;;;;;8.18;1.55;;;;;;;7.33;58.40;100054.16;4958543;28;119504;-71
2022/01/05 01:33:01;;;;;;;9.15;1.90;;;;;;;7.29;58.44;100052.53;4950851;28;123017;-71
2022/01/05 01:35:29;;;;;;;5.45;1.20;;;;;;;7.26;58.78;100058.81;4943003;28;122951;-71
2022/01/05 01:37:56;;;;;;;7.07;1.48;;;;;;;7.24;58.94;100049.28;4930081;28;120183;-72
2022/01/05 01:40:23;;;;;;;6.30;1.63;;;;;;;7.21;58.44;100051.13;4932064;28;118304;-71
2022/01/05 01:42:50;;;;;;;8.02;1.80;;;;;;;7.19;58.34;100045.03;4949444;28;124529;-71
2022/01/05 01:45:18;;;;;;;6.38;1.55;;;;;;;7.16;58.61;100053.09;4950374;28;123622;-72
2022/01/05 01:47:46;;;;;;;6.88;1.60;;;;;;;7.14;58.76;100049.69;4946558;28;117347;-72
2022/01/05 01:50:13;;;;;;;6.72;1.40;;;;;;;7.11;58.41;100055.06;4947682;28;118228;-71
2022/01/05 01:52:40;;;;;;;7.18;1.60;;;;;;;7.08;58.53;100054.34;4947280;28;124494;-72
2022/01/05 01:55:08;;;;;;;5.63;1.63;;;;;;;7.05;58.39;100060.63;4948290;28;123639;-72
2022/01/05 01:57:39;;;;;;;4.32;1.35;;;;;;;7.03;58.46;100062.47;4948248;28;120238;-72
2022/01/05 02:00:08;;;;;;;5.57;1.33;;;;;;;7.01;58.56;100065.16;4947207;28;118161;-72
2022/01/05 02:02:38;;;;;;;10.73;1.73;;;;;;;7.00;58.34;100062.56;4945808;28;125673;-72
2022/01/05 02:05:06;;;;;;;6.25;1.70;;;;;;;6.98;58.49;100059.16;4942550;28;122896;-72
2022/01/05 02:07:34;;;;;;;7.47;1.67;;;;;;;6.97;58.26;100054.84;4949070;28;119221;-72
2022/01/05 02:10:07;;;;;;;7.97;1.85;;;;;;;6.95;58.59;100061.91;4947672;28;118114;-72
2022/01/05 02:12:35;;;;;;;5.88;1.33;;;;;;;6.94;58.22;100062.84;4946388;28;124735;-72
2022/01/05 02:15:03;;;;;;;5.65;1.55;;;;;;;6.91;58.30;100073.50;4948286;28;123772;-72
2022/01/05 02:17:56;;;;;;;8.45;1.88;;;;;;;6.88;58.40;100068.38;4930812;28;119409;-72
2022/01/05 02:20:25;;;;;;;6.07;1.40;;;;;;;6.85;58.11;100065.88;4927706;28;119582;-71
2022/01/05 02:22:53;;;;;;;5.32;1.52;;;;;;;6.81;58.29;100063.34;4946763;28;124256;-72
2022/01/05 02:25:21;;;;;;;7.50;1.63;;;;;;;6.77;58.27;100061.78;4947482;28;124316;-72
2022/01/05 02:27:50;;;;;;;4.93;1.48;;;;;;;6.76;58.36;100065.34;4930279;28;118993;-72
2022/01/05 02:30:21;;;;;;;6.38;1.42;;;;;;;6.73;58.32;100076.00;4948621;28;120075;-71
2022/01/05 02:32:49;;;;;;;8.88;1.40;;;;;;;6.71;58.43;100069.09;4947129;28;123351;-71
2022/01/05 02:35:16;;;;;;;7.95;1.58;;;;;;;6.69;58.27;100069.16;4948542;28;124619;-72
2022/01/05 02:37:46;;;;;;;3.95;1.75;;;;;;;6.69;58.42;100074.41;4947750;28;119092;-71
2022/01/05 02:40:16;;;;;;;9.15;1.60;;;;;;;6.68;58.07;100077.94;4947218;28;118635;-71
2022/01/05 02:42:44;;;;;;;6.65;1.90;;;;;;;6.67;58.41;100080.63;4947992;28;124095;-72
2022/01/05 02:45:13;;;;;;;4.93;1.45;;;;;;;6.65;58.34;100078.09;4947944;28;123828;-72
2022/01/05 02:47:41;;;;;;;10.88;1.60;;;;;;;6.64;58.25;100081.63;4928960;28;119523;-72
2022/01/05 02:50:10;;;;;;;7.13;1.92;;;;;;;6.61;57.96;100081.75;4930813;28;118757;-71
2022/01/05 02:52:38;;;;;;;6.88;1.55;;;;;;;6.59;57.82;100089.72;4932807;28;123928;-72
2022/01/05 02:55:06;;;;;;;5.50;1.40;;;;;;;6.57;58.19;100085.44;4947420;28;123823;-72
2022/01/05 02:57:33;;;;;;;6.88;1.80;;;;;;;6.54;58.09;100090.84;4931436;28;119509;-72
2022/01/05 03:00:01;;;;;;;8.77;1.98;;;;;;;6.52;58.12;100103.19;4947418;28;118752;-71
2022/01/05 03:02:28;;;;;;;7.68;1.55;;;;;;;6.47;58.03;100095.47;4915096;28;123027;-72
2022/01/05 03:04:55;;;;;;;7.90;1.70;;;;;;;6.45;58.02;100101.72;4948295;28;123907;-71
2022/01/05 03:07:22;;;;;;;7.22;1.70;;;;;;;6.41;58.18;100106.25;4948370;28;120991;-72
2022/01/05 03:09:49;;;;;;;7.75;1.70;;;;;;;6.38;58.01;100107.19;4947917;28;119906;-71
2022/01/05 03:12:17;;;;;;;6.50;1.50;;;;;;;6.36;58.10;100110.81;4947603;28;123930;-71
2022/01/05 03:14:44;;;;;;;7.07;1.48;;;;;;;6.33;58.36;100109.19;4946891;28;123657;-72
2022/01/05 03:17:11;;;;;;;9.55;1.80;;;;;;;6.32;58.16;100107.44;4946772;28;119156;-71
2022/01/05 03:19:38;;;;;;;6.85;1.70;;;;;;;6.29;58.28;100118.09;4941671;28;119925;-71
2022/01/05 03:22:05;;;;;;;5.32;1.40;;;;;;;6.28;58.45;100119.00;4948147;28;123955;-71
2022/01/05 03:24:32;;;;;;;9.00;1.48;;;;;;;6.26;58.18;100123.47;4948413;28;124276;-72
2022/01/05 03:26:59;;;;;;;6.32;1.50;;;;;;;6.24;58.15;100122.69;4945625;28;119555;-72
2022/01/05 03:29:27;;;;;;;5.47;1.40;;;;;;;6.24;58.06;100122.69;4948608;28;118628;-72
2022/01/05 03:31:54;;;;;;;8.23;1.60;;;;;;;6.23;58.39;100123.59;4948184;28;124323;-71
2022/01/05 03:34:21;;;;;;;6.50;1.70;;;;;;;6.20;58.35;100119.31;4948371;28;124542;-71
2022/01/05 03:36:48;;;;;;;4.80;1.35;;;;;;;6.20;58.11;100131.59;4948353;28;119799;-72
2022/01/05 03:39:16;;;;;;;6.43;1.50;;;;;;;6.19;58.13;100127.25;4941587;28;117773;-72
2022/01/05 03:41:43;;;;;;;7.18;1.48;;;;;;;6.17;58.27;100129.94;4947712;28;123762;-72
2022/01/05 03:44:10;;;;;;;7.50;1.45;;;;;;;6.18;58.33;100133.44;4947670;28;123897;-71
2022/01/05 03:46:37;;;;;;;7.05;1.65;;;;;;;6.17;58.28;100139.59;4934856;28;119189;-71
2022/01/05 03:49:04;;;;;;;3.88;1.55;;;;;;;6.16;58.03;100137.88;4914330;28;119156;-72
2022/01/05 03:51:31;;;;;;;4.88;1.55;;;;;;;6.16;58.14;100148.41;4940643;28;123905;-71
2022/01/05 03:53:58;;;;;;;4.88;1.27;;;;;;;6.16;58.14;100153.66;4947348;28;125620;-71
2022/01/05 03:56:25;;;;;;;5.60;1.73;;;;;;;6.15;58.16;100152.81;4947343;28;120311;-71
2022/01/05 03:58:52;;;;;;;8.90;1.50;;;;;;;6.15;58.22;100150.16;4948257;28;120504;-72
2022/01/05 04:01:20;;;;;;;6.78;1.50;;;;;;;6.16;58.17;100145.75;4926916;28;122970;-71
2022/01/05 04:03:47;;;;;;;4.43;1.38;;;;;;;6.17;58.39;100147.50;4940985;28;123797;-72
2022/01/05 04:06:14;;;;;;;5.18;1.63;;;;;;;6.20;58.33;100155.28;4929987;28;119811;-72
2022/01/05 04:08:41;;;;;;;10.27;1.60;;;;;;;6.22;58.31;100142.91;4947200;28;119509;-72
2022/01/05 04:11:08;;;;;;;5.60;1.20;;;;;;;6.22;58.20;100142.91;4946301;28;123997;-72
2022/01/05 04:13:37;;;;;;;9.55;1.40;;;;;;;6.22;58.29;100154.28;4947391;28;123767;-72
2022/01/05 04:16:05;;;;;;;5.20;1.48;;;;;;;6.21;57.95;100157.81;4947728;28;119348;-71
2022/01/05 04:18:32;;;;;;;6.45;1.45;;;;;;;6.22;58.07;100156.06;4946633;28;119265;-71
2022/01/05 04:20:59;;;;;;;5.22;1.65;;;;;;;6.22;57.91;100163.97;4945539;28;122357;-71
2022/01/05 04:23:26;;;;;;;6.30;1.45;;;;;;;6.21;57.99;100159.59;4947451;28;123847;-71
2022/01/05 04:25:54;;;;;;;5.93;1.50;;;;;;;6.21;58.19;100167.47;4946654;28;118634;-72
2022/01/05 04:28:21;;;;;;;6.00;1.23;;;;;;;6.21;58.02;100168.34;4945260;28;119229;-72
2022/01/05 04:30:48;;;;;;;8.45;1.73;;;;;;;6.20;58.20;100166.63;4946484;28;123212;-71
2022/01/05 04:33:15;;;;;;;5.93;1.75;;;;;;;6.20;58.01;100171.91;4945039;28;123726;-72
2022/01/05 04:36:02;;;;;;;9.68;1.50;;;;;;;6.19;57.95;100174.56;4944457;28;118117;-72
2022/01/05 04:38:29;;;;;;;6.18;1.40;;;;;;;6.19;57.96;100175.44;4948482;28;118665;-71
2022/01/05 04:40:56;;;;;;;9.23;1.65;;;;;;;6.18;58.05;100178.13;4947925;28;125284;-71
2022/01/05 04:43:24;;;;;;;5.43;1.42;;;;;;;6.17;57.74;100181.66;4930694;28;123916;-71
2022/01/05 04:45:56;;;;;;;7.07;1.63;;;;;;;6.14;57.81;100181.78;4946183;28;120041;-72
2022/01/05 04:48:23;;;;;;;6.57;1.63;;;;;;;6.13;57.74;100180.94;4948394;28;120390;-71
2022/01/05 04:50:50;;;;;;;7.93;1.42;;;;;;;6.12;57.80;100183.59;4930270;28;124427;-71
2022/01/05 04:53:18;;;;;;;10.98;1.98;;;;;;;6.10;58.03;100185.44;4946596;28;123744;-71
2022/01/05 04:55:45;;;;;;;7.43;1.70;;;;;;;6.09;58.07;100178.47;4930456;28;119535;-71
2022/01/05 04:58:12;;;;;;;8.15;1.60;;;;;;;6.07;58.01;100185.56;4946745;28;118688;-71
2022/01/05 05:00:39;;;;;;;10.65;1.60;;;;;;;6.08;57.88;100184.63;4946696;28;123869;-71
2022/01/05 05:03:06;;;;;;;5.32;1.67;;;;;;;6.09;57.82;100189.00;4946679;28;124647;-71
2022/01/05 05:05:35;;;;;;;5.80;1.30;;;;;;;6.10;57.89;100196.81;4948292;28;119760;-71
2022/01/05 05:08:03;;;;;;;6.55;1.42;;;;;;;6.13;58.18;100190.59;4944555;28;117994;-71
2022/01/05 05:10:31;;;;;;;8.23;1.60;;;;;;;6.15;58.09;100183.50;4944959;28;122183;-71
2022/01/05 05:12:58;;;;;;;12.60;2.15;;;;;;;6.17;58.08;100181.66;4948512;28;123513;-71
2022/01/05 05:15:26;;;;;;;7.30;1.38;;;;;;;6.19;58.35;100185.09;4950269;28;119135;-72
2022/01/05 05:17:53;;;;;;;7.38;1.45;;;;;;;6.22;58.14;100190.25;4950829;28;119615;-71
2022/01/05 05:20:20;;;;;;;7.47;1.70;;;;;;;6.24;58.30;100183.16;4950389;28;122964;-71
2022/01/05 05:22:47;;;;;;;8.38;1.98;;;;;;;6.26;57.98;100170.81;4950398;28;123656;-71
2022/01/05 05:25:14;;;;;;;7.80;1.50;;;;;;;6.27;58.18;100167.25;4950478;28;119071;-71
2022/01/05 05:27:41;;;;;;;12.02;1.92;;;;;;;6.28;57.89;100174.22;4948229;28;119100;-71
2022/01/05 05:30:28;;;;;;;5.13;1.38;;;;;;;6.29;58.07;100157.56;4945311;28;124436;-72
2022/01/05 05:32:57;;;;;;;6.85;1.55;;;;;;;6.30;58.24;100167.13;4932618;28;123433;-71
2022/01/05 05:35:26;;;;;;;10.77;1.80;;;;;;;6.31;58.30;100168.88;4932875;28;119128;-71
2022/01/05 05:37:54;;;;;;;6.88;1.63;;;;;;;6.34;57.94;100174.00;4950393;28;120456;-72
2022/01/05 05:40:21;;;;;;;6.10;1.60;;;;;;;6.35;58.18;100170.47;4949907;28;123814;-72
2022/01/05 05:42:49;;;;;;;10.90;1.63;;;;;;;6.39;58.12;100156.28;4950298;28;124131;-71
2022/01/05 05:45:16;;;;;;;8.27;1.77;;;;;;;6.41;58.20;100167.59;4932070;28;118314;-71
2022/01/05 05:47:44;;;;;;;6.53;1.52;;;;;;;6.43;58.35;100171.00;4950854;28;119505;-71
2022/01/05 05:50:11;;;;;;;4.50;1.40;;;;;;;6.47;58.01;100168.28;4949013;28;123367;-71
2022/01/05 05:52:38;;;;;;;6.00;2.03;;;;;;;6.48;57.92;100175.22;4951258;28;123583;-71
2022/01/05 05:55:06;;;;;;;7.90;1.50;;;;;;;6.51;57.99;100175.13;4932882;28;117327;-72
2022/01/05 05:57:43;;;;;;;7.20;1.50;;;;;;;6.52;58.34;100177.69;4948857;28;118893;-72
2022/01/05 06:00:11;;;;;;;11.07;1.83;;;;;;;6.54;58.11;100185.53;4948536;28;124265;-72
2022/01/05 06:02:38;;;;;;;6.28;1.30;;;;;;;6.54;57.96;100190.78;4951142;28;124059;-71
2022/01/05 06:05:06;;;;;;;7.45;1.55;;;;;;;6.54;58.01;100180.28;4950405;28;119270;-71
2022/01/05 06:07:34;;;;;;;11.23;1.90;;;;;;;6.55;58.08;100182.81;4958565;28;118616;-71
2022/01/05 06:10:01;;;;;;;9.18;1.90;;;;;;;6.55;58.18;100181.97;4942495;28;122136;-71
2022/01/05 06:12:28;;;;;;;15.73;2.05;;;;;;;6.55;58.03;100190.72;4961100;28;124700;-71
2022/01/05 06:14:55;;;;;;;7.15;2.00;;;;;;;6.55;57.82;100181.97;4963879;28;120253;-71
2022/01/05 06:17:22;;;;;;;10.52;1.80;;;;;;;6.55;58.12;100188.06;4948909;28;118085;-71
2022/01/05 06:19:49;;;;;;;9.20;2.13;;;;;;;6.55;57.94;100198.59;4944265;28;124135;-71
2022/01/05 06:22:17;;;;;;;11.40;1.75;;;;;;;6.57;58.16;100201.19;4948590;28;122681;-72
2022/01/05 06:24:49;;;;;;;7.68;1.75;;;;;;;6.57;58.06;100211.69;4946987;28;119516;-71
2022/01/05 06:27:16;;;;;;;7.78;1.77;;;;;;;6.59;58.16;100215.13;4933029;28;119250;-71
2022/01/05 06:29:43;;;;;;;8.68;1.85;;;;;;;6.59;57.90;100204.59;4949598;28;124771;-70
2022/01/05 06:32:11;;;;;;;8.27;1.65;;;;;;;6.62;58.29;100215.03;4950503;28;124480;-73
2022/01/05 06:34:38;;;;;;;12.80;1.88;;;;;;;6.65;58.22;100208.78;4948685;28;117705;-72
2022/01/05 06:37:06;;;;;;;6.85;1.40;;;;;;;6.67;58.21;100201.66;4951536;28;119044;-70
2022/01/05 06:39:33;;;;;;;10.02;1.70;;;;;;;6.69;58.20;100208.63;4950894;28;124004;-71
2022/01/05 06:42:00;;;;;;;6.57;1.60;;;;;;;6.72;58.04;100216.38;4950697;28;123812;-71
2022/01/05 06:44:27;;;;;;;12.57;1.88;;;;;;;6.73;58.21;100223.34;4948973;28;119422;-71
2022/01/05 06:46:59;;;;;;;9.55;1.48;;;;;;;6.74;58.05;100217.19;4949723;28;118779;-71
2022/01/05 06:49:26;;;;;;;9.52;1.80;;;;;;;6.75;58.31;100226.78;4947397;28;125086;-71
2022/01/05 06:51:53;;;;;;;8.43;1.67;;;;;;;6.76;58.39;100220.63;4949592;28;123060;-71
2022/01/05 06:54:21;;;;;;;8.23;1.45;;;;;;;6.76;57.98;100225.88;4950078;28;120688;-72
2022/01/05 06:56:48;;;;;;;11.70;1.70;;;;;;;6.77;58.04;100235.47;4951190;28;119983;-71
2022/01/05 06:59:15;;;;;;;5.63;1.55;;;;;;;6.75;58.20;100226.78;4949354;28;123773;-71
2022/01/05 07:01:42;;;;;;;6.07;1.67;;;;;;;6.73;57.90;100231.25;4948701;28;125016;-70
2022/01/05 07:04:09;;;;;;;6.28;1.50;;;;;;;6.73;57.88;100248.81;4949161;28;119398;-71
2022/01/05 07:06:36;;;;;;;9.52;1.80;;;;;;;6.71;58.01;100245.41;4950706;28;118829;-71
2022/01/05 07:09:05;;;;;;;8.23;1.60;;;;;;;6.70;57.88;100255.03;4932635;28;123522;-71
2022/01/05 07:11:32;;;;;;;7.93;2.10;;;;;;;6.68;58.14;100246.34;4932074;28;123931;-71
2022/01/05 07:13:59;;;;;;;11.80;1.70;;;;;;;6.69;58.28;100255.97;4930851;28;119456;-72
2022/01/05 07:16:26;;;;;;;6.20;1.88;;;;;;;6.69;58.21;100253.34;4932323;28;120089;-71
2022/01/05 07:18:54;;;;;;;11.93;1.70;;;;;;;6.68;58.24;100250.75;4947738;28;123991;-71
2022/01/05 07:21:21;;;;;;;8.57;1.40;;;;;;;6.70;58.37;100255.03;4931512;28;124049;-71
2022/01/05 07:23:48;;;;;;;6.60;1.50;;;;;;;6.71;58.35;100256.78;4949813;28;118567;-71
2022/01/05 07:26:15;;;;;;;7.97;1.88;;;;;;;6.72;58.35;100261.09;4932545;28;119124;-71
2022/01/05 07:28:44;;;;;;;9.05;1.92;;;;;;;6.72;58.17;100261.09;4948118;28;124064;-72
2022/01/05 07:31:12;;;;;;;6.72;1.65;;;;;;;6.74;58.66;100256.66;4949607;28;123609;-71
2022/01/05 07:33:39;;;;;;;7.53;1.88;;;;;;;6.77;58.39;100264.41;4947990;28;119747;-71
2022/01/05 07:36:06;;;;;;;11.40;1.65;;;;;;;6.79;58.41;100274.91;4948669;28;119649;-71
2022/01/05 07:38:33;;;;;;;6.60;1.90;;;;;;;6.81;58.49;100273.06;4948764;28;123685;-71
2022/01/05 07:41:00;;;;;;;7.38;1.70;;;;;;;6.85;58.53;100276.44;4947627;28;124067;-71
2022/01/05 07:43:27;;;;;;;8.52;1.75;;;;;;;6.86;58.59;100270.25;4946699;28;119105;-71
2022/01/05 07:45:54;;;;;;;6.85;1.70;;;;;;;6.88;58.51;100268.44;4949052;28;119102;-71
2022/01/05 07:48:21;;;;;;;11.77;1.98;;;;;;;6.89;58.39;100264.84;4931180;28;123840;-71
2022/01/05 07:50:48;;;;;;;8.27;2.00;;;;;;;6.91;58.34;100279.69;4948348;28;123916;-72
2022/01/05 07:53:16;;;;;;;9.15;1.88;;;;;;;6.94;58.36;100289.25;4949171;28;119309;-71
2022/01/05 07:55:43;;;;;;;10.95;1.95;;;;;;;6.97;58.82;100289.13;4949913;28;120082;-71
2022/01/05 07:58:10;;;;;;;7.78;1.85;;;;;;;6.98;58.42;100290.84;4931520;28;123200;-72
2022/01/05 08:00:38;;;;;;;8.55;2.15;;;;;;;7.01;58.51;100296.00;4949422;28;124549;-72
2022/01/05 08:03:05;;;;;;;8.35;1.70;;;;;;;7.04;58.69;100295.00;4932096;28;119087;-72
2022/01/05 08:05:33;;;;;;;6.80;1.77;;;;;;;7.06;58.60;100299.28;4949719;28;120665;-71
2022/01/05 08:08:00;;;;;;;10.20;2.05;;;;;;;7.09;58.44;100303.59;4948473;28;123451;-71
2022/01/05 08:10:27;;;;;;;9.05;1.80;;;;;;;7.11;58.70;100307.84;4948338;28;124213;-72
2022/01/05 08:12:54;;;;;;;5.38;1.70;;;;;;;7.14;58.43;100294.59;4948814;28;119578;-71
2022/01/05 08:15:21;;;;;;;11.50;1.70;;;;;;;7.18;58.56;100285.63;4948526;28;118883;-72
2022/01/05 08:17:48;;;;;;;8.52;1.63;;;;;;;7.20;58.61;100278.53;4949026;28;123976;-71
2022/01/05 08:20:15;;;;;;;10.65;2.22;;;;;;;7.22;58.34;100279.31;4948436;28;124469;-72
2022/01/05 08:22:45;;;;;;;10.85;1.90;;;;;;;7.26;58.73;100284.47;4931098;28;119124;-72
2022/01/05 08:25:15;;;;;;;7.97;1.70;;;;;;;7.29;58.51;100294.88;4948669;28;118568;-72
2022/01/05 08:27:46;;;;;;;5.65;1.60;;;;;;;7.32;58.65;100294.75;4946573;28;123335;-72
2022/01/05 08:30:20;;;;;;;10.75;1.80;;;;;;;7.36;58.82;100301.63;4947021;28;123268;-72
2022/01/05 08:32:48;;;;;;;10.45;1.92;;;;;;;7.40;58.58;100297.94;4930735;28;119249;-72
2022/01/05 08:35:16;;;;;;;10.55;1.83;;;;;;;7.45;58.61;100295.97;4928983;28;117914;-72
2022/01/05 08:37:46;;;;;;;9.43;1.80;;;;;;;7.49;58.42;100300.19;4946687;28;123758;-72
2022/01/05 08:40:19;;;;;;;7.72;2.03;;;;;;;7.53;58.42;100299.13;4947536;28;123026;-71
2022/01/05 08:42:47;;;;;;;10.00;1.88;;;;;;;7.59;58.49;100304.19;4947658;28;120304;-72
2022/01/05 08:45:15;;;;;;;7.97;1.67;;;;;;;7.63;58.54;100306.66;4947980;28;118514;-71
2022/01/05 08:47:47;;;;;;;11.15;1.70;;;;;;;7.68;58.81;100312.59;4939850;28;123670;-71
2022/01/05 08:50:16;;;;;;;7.57;1.60;;;;;;;7.75;58.90;100308.81;4947033;28;122813;-71
2022/01/05 08:52:45;;;;;;;8.52;1.70;;;;;;;7.82;58.71;100319.94;4946929;28;120273;-71
2022/01/05 08:55:14;;;;;;;10.80;1.77;;;;;;;7.87;58.37;100329.34;4949028;28;120009;-72
2022/01/05 08:57:42;;;;;;;8.65;1.70;;;;;;;7.94;58.64;100328.19;4948979;28;124186;-72
2022/01/05 09:00:11;;;;;;;10.23;1.92;;;;;;;8.01;58.35;100330.59;4946970;28;123803;-71
2022/01/05 09:02:39;;;;;;;11.57;1.70;;;;;;;8.08;58.40;100321.47;4948895;28;119377;-72
2022/01/05 09:05:07;;;;;;;5.53;2.20;;;;;;;8.15;58.24;100328.19;4948625;28;119236;-72
2022/01/05 09:07:35;;;;;;;6.07;1.50;;;;;;;8.20;58.39;100331.50;4946598;28;123444;-71
2022/01/05 09:10:04;;;;;;;9.63;2.25;;;;;;;8.25;58.59;100329.53;4949027;28;124253;-72
2022/01/05 09:12:33;;;;;;;9.07;1.63;;;;;;;8.30;58.25;100327.50;4930429;28;118850;-72
2022/01/05 09:15:00;;;;;;;12.43;1.85;;;;;;;8.33;58.42;100332.66;4949072;28;119261;-72
2022/01/05 09:17:28;;;;;;;9.57;2.10;;;;;;;8.34;58.21;100334.41;4947117;28;123712;-71
2022/01/05 09:19:55;;;;;;;11.43;2.22;;;;;;;8.36;58.72;100332.53;4915079;28;121733;-72
2022/01/05 09:22:23;;;;;;;8.95;2.03;;;;;;;8.36;58.52;100332.53;4948278;28;119095;-72
2022/01/05 09:24:51;;;;;;;10.27;1.92;;;;;;;8.37;58.34;100336.88;4946840;28;118443;-72
2022/01/05 09:27:18;;;;;;;8.13;1.58;;;;;;;8.38;58.29;100335.97;4948041;28;123940;-72
2022/01/05 09:29:46;;;;;;;13.63;2.10;;;;;;;8.39;58.47;100336.81;4946543;28;123559;-72
2022/01/05 09:32:13;;;;;;;6.00;1.40;;;;;;;8.38;58.53;100341.25;4948358;28;119489;-71
2022/01/05 09:34:42;;;;;;;8.75;2.17;;;;;;;8.41;58.60;100356.06;4948088;28;119686;-72
2022/01/05 09:37:35;;;;;;;10.77;2.20;;;;;;;8.44;58.56;100352.47;4929648;28;123818;-72
2022/01/05 09:42:43;;;;;;;;;;;;;;;8.44;58.49;100360.38;4943276;28;120239;-71
2022/01/05 09:45:17;;;;;;;8.63;1.92;;;;;;;8.46;58.47;100358.56;4942083;28;119540;-72
2022/01/05 09:48:10;;;;;;;6.93;1.65;;;;;;;8.46;58.24;100358.56;4944183;28;123058;-70
2022/01/05 09:50:57;;;;;;;8.82;1.60;;;;;;;8.45;58.32;100367.38;4926993;28;123222;-71
2022/01/05 09:53:24;;;;;;;13.63;2.03;;;;;;;8.45;58.65;100377.94;4944089;28;119131;-72
2022/01/05 09:55:58;;;;;;;11.38;1.80;;;;;;;8.42;58.55;100372.78;4927081;28;118163;-71
2022/01/05 09:58:27;;;;;;;11.63;1.90;;;;;;;8.43;58.57;100374.53;4945741;28;127489;-72
2022/01/05 10:00:55;;;;;;;8.80;1.83;;;;;;;8.42;58.56;100370.16;4947181;28;125588;-74
2022/01/05 10:03:23;;;;;;;5.50;1.80;;;;;;;8.43;58.90;100374.53;4931333;28;118771;-71
2022/01/05 10:05:50;;;;;;;11.30;2.00;;;;;;;8.43;58.42;100377.16;4946837;28;118913;-71
2022/01/05 10:08:17;;;;;;;8.27;1.63;;;;;;;8.43;58.85;100371.88;4948201;28;124752;-72
2022/01/05 10:10:45;;;;;;;12.07;2.10;;;;;;;8.43;58.71;100374.53;4948013;28;124270;-72
2022/01/05 10:13:12;;;;;;;9.15;1.65;;;;;;;8.44;58.85;100373.56;4946650;28;118982;-70
2022/01/05 10:15:40;;;;;;;8.40;1.80;;;;;;;8.44;58.93;100377.09;4949124;28;118800;-71
2022/01/05 10:18:10;;;;;;;7.20;1.63;;;;;;;8.46;58.78;100382.31;4950040;28;123967;-70
2022/01/05 10:20:53;;;;;;;7.80;1.92;;;;;;;8.46;58.89;100379.69;4949147;28;124151;-71
2022/01/05 10:23:33;;;;;;;11.38;1.55;;;;;;;8.47;59.08;100384.00;4948716;28;120026;-70
2022/01/05 10:26:23;;;;;;;9.27;1.90;;;;;;;8.47;58.94;100391.94;4946563;28;119516;-71
2022/01/05 10:28:52;;;;;;;8.23;1.65;;;;;;;8.48;59.31;100398.94;4931977;28;122905;-71
2022/01/05 10:31:23;;;;;;;8.98;1.58;;;;;;;8.50;59.07;100397.09;4947524;28;124446;-71
2022/01/05 10:33:50;;;;;;;11.13;1.95;;;;;;;8.52;59.05;100405.78;4946151;28;119613;-70
2022/01/05 10:36:18;;;;;;;8.32;1.80;;;;;;;8.54;59.23;100409.22;4934708;28;119852;-71
2022/01/05 10:38:57;;;;;;;12.05;1.65;;;;;;;8.54;59.18;100406.59;4948294;28;122872;-71
2022/01/05 10:41:27;;;;;;;6.13;1.50;;;;;;;8.57;59.35;100404.66;4931213;28;124377;-71
2022/01/05 10:44:17;;;;;;;9.00;1.65;;;;;;;8.62;59.32;100412.38;4949896;28;119192;-71
2022/01/05 10:46:56;;;;;;;11.98;2.00;;;;;;;8.64;59.36;100405.25;4950054;28;119854;-71
2022/01/05 10:49:26;;;;;;;7.63;1.92;;;;;;;8.68;59.44;100406.84;4949754;28;124763;-71
2022/01/05 10:51:55;;;;;;;10.02;1.85;;;;;;;8.71;59.61;100414.59;4948178;28;124077;-71
2022/01/05 10:54:25;;;;;;;12.80;2.00;;;;;;;8.74;59.12;100411.84;4932112;28;119441;-71
2022/01/05 10:56:53;;;;;;;8.90;2.03;;;;;;;8.78;59.40;100417.84;4948210;28;118311;-70
2022/01/05 10:59:35;;;;;;;13.90;2.63;;;;;;;8.81;59.25;100422.13;4949258;28;123126;-70
2022/01/05 11:02:25;;;;;;;6.55;1.50;;;;;;;8.83;59.29;100420.28;4931569;28;122994;-70
2022/01/05 11:05:11;;;;;;;11.15;1.98;;;;;;;8.86;59.23;100426.28;4949121;28;119132;-71
2022/01/05 11:07:42;;;;;;;8.77;1.50;;;;;;;8.90;59.60;100429.63;4949064;28;118345;-71
2022/01/05 11:10:12;;;;;;;10.65;1.55;;;;;;;8.96;59.65;100432.00;4930723;28;123689;-71
2022/01/05 11:12:42;;;;;;;6.85;1.55;;;;;;;9.00;59.26;100423.00;4948912;28;123701;-71
2022/01/05 11:15:28;;;;;;;9.00;1.70;;;;;;;9.04;59.29;100424.59;4949216;28;120003;-70
2022/01/05 11:18:06;;;;;;;4.10;1.63;;;;;;;9.09;59.41;100425.22;4932339;28;118707;-70
2022/01/05 11:20:33;;;;;;;11.23;2.05;;;;;;;9.12;59.25;100438.31;4949827;28;125086;-70
2022/01/05 11:23:00;;;;;;;5.32;1.50;;;;;;;9.16;59.35;100450.44;4948682;28;123803;-70
2022/01/05 11:25:28;;;;;;;10.80;2.13;;;;;;;9.20;59.42;100445.03;4949156;28;120301;-69
2022/01/05 11:27:55;;;;;;;11.73;1.75;;;;;;;9.24;59.46;100436.03;4948584;28;119740;-70
2022/01/05 11:30:22;;;;;;;10.00;1.70;;;;;;;9.27;59.27;100457.03;4948441;28;124382;-70
2022/01/05 11:32:50;;;;;;;12.38;2.28;;;;;;;9.31;59.35;100458.63;4947917;28;124140;-69
2022/01/05 11:35:17;;;;;;;8.02;1.55;;;;;;;9.34;59.19;100447.88;4948983;28;118552;-73